sensor_id;sensor_type;location;lat;lon;timestamp;pressure;altitude;pressure_sealevel;temperature;humidity
39789;BME280;25478;42.626;23.320;2022-12-07T00:02:14;93048.56;;;3.65;100.00
39789;BME280;25478;42.626;23.320;2022-12-07T00:04:40;93054.19;;;3.67;100.00
39789;BME280;25478;42.626;23.320;2022-12-07T00:07:05;93055.72;;;3.68;100.00
39789;BME280;25478;42.626;23.320;2022-12-07T00:09:31;93051.25;;;3.68;100.00
39789;BME280;25478;42.626;23.320;2022-12-07T00:11:56;93048.66;;;3.68;100.00
39789;BME280;25478;42.626;23.320;2022-12-07T00:14:22;93043.03;;;3.66;100.00
39789;BME280;25478;42.626;23.320;2022-12-07T00:16:49;93046.38;;;3.67;100.00
39789;BME280;25478;42.626;23.320;2022-12-07T00:19:16;93019.97;;;3.53;100.00
39789;BME280;25478;42.626;23.320;2022-12-07T00:21:42;93023.84;;;3.59;100.00
39789;BME280;25478;42.626;23.320;2022-12-07T00:24:09;93037.94;;;3.70;100.00
39789;BME280;25478;42.626;23.320;2022-12-07T00:26:36;93035.34;;;3.70;100.00
39789;BME280;25478;42.626;23.320;2022-12-07T00:29:06;93015.72;;;3.60;100.00
39789;BME280;25478;42.626;23.320;2022-12-07T00:31:35;93026.22;;;3.64;100.00
39789;BME280;25478;42.626;23.320;2022-12-07T00:34:04;93042.03;;;3.71;100.00
39789;BME280;25478;42.626;23.320;2022-12-07T00:36:30;93042.69;;;3.68;100.00
39789;BME280;25478;42.626;23.320;2022-12-07T00:38:58;93049.00;;;3.67;100.00
39789;BME280;25478;42.626;23.320;2022-12-07T00:41:25;93047.91;;;3.68;100.00
39789;BME280;25478;42.626;23.320;2022-12-07T00:43:51;93040.84;;;3.68;100.00
39789;BME280;25478;42.626;23.320;2022-12-07T00:46:18;93035.00;;;3.72;100.00
39789;BME280;25478;42.626;23.320;2022-12-07T00:48:44;93036.09;;;3.71;100.00
39789;BME280;25478;42.626;23.320;2022-12-07T00:51:11;93030.88;;;3.71;100.00
39789;BME280;25478;42.626;23.320;2022-12-07T00:53:38;93030.13;;;3.70;100.00
39789;BME280;25478;42.626;23.320;2022-12-07T00:56:15;93039.00;;;3.69;100.00
39789;BME280;25478;42.626;23.320;2022-12-07T00:58:41;93021.16;;;3.55;100.00
39789;BME280;25478;42.626;23.320;2022-12-07T01:01:08;93035.88;;;3.63;100.00
39789;BME280;25478;42.626;23.320;2022-12-07T01:03:35;93046.94;;;3.60;100.00
39789;BME280;25478;42.626;23.320;2022-12-07T01:06:01;93032.75;;;3.58;100.00
39789;BME280;25478;42.626;23.320;2022-12-07T01:08:27;93032.53;;;3.63;100.00
39789;BME280;25478;42.626;23.320;2022-12-07T01:11:04;93034.03;;;3.64;100.00
39789;BME280;25478;42.626;23.320;2022-12-07T01:13:30;93027.00;;;3.64;100.00
39789;BME280;25478;42.626;23.320;2022-12-07T01:15:58;93028.84;;;3.64;100.00
39789;BME280;25478;42.626;23.320;2022-12-07T01:18:28;93028.06;;;3.63;100.00
39789;BME280;25478;42.626;23.320;2022-12-07T01:20:59;93025.81;;;3.62;100.00
39789;BME280;25478;42.626;23.320;2022-12-07T01:23:25;93014.31;;;3.63;100.00
39789;BME280;25478;42.626;23.320;2022-12-07T01:25:57;93013.97;;;3.64;100.00
39789;BME280;25478;42.626;23.320;2022-12-07T01:28:24;93019.81;;;3.61;100.00
39789;BME280;25478;42.626;23.320;2022-12-07T01:33:31;93015.53;;;3.53;100.00
39789;BME280;25478;42.626;23.320;2022-12-07T01:36:04;93013.56;;;3.50;100.00
39789;BME280;25478;42.626;23.320;2022-12-07T01:38:30;93006.84;;;3.49;100.00
39789;BME280;25478;42.626;23.320;2022-12-07T01:40:57;93018.78;;;3.50;100.00
39789;BME280;25478;42.626;23.320;2022-12-07T01:43:23;93018.03;;;3.50;100.00
39789;BME280;25478;42.626;23.320;2022-12-07T01:45:49;93018.38;;;3.48;100.00
39789;BME280;25478;42.626;23.320;2022-12-07T01:48:17;93015.97;;;3.43;100.00
39789;BME280;25478;42.626;23.320;2022-12-07T01:50:47;93020.09;;;3.44;100.00
39789;BME280;25478;42.626;23.320;2022-12-07T01:53:14;93013.03;;;3.45;100.00
39789;BME280;25478;42.626;23.320;2022-12-07T01:55:42;93012.28;;;3.44;100.00
39789;BME280;25478;42.626;23.320;2022-12-07T01:58:10;93012.28;;;3.44;100.00
39789;BME280;25478;42.626;23.320;2022-12-07T02:00:36;93002.97;;;3.43;100.00
39789;BME280;25478;42.626;23.320;2022-12-07T02:05:47;92991.16;;;3.46;100.00
39789;BME280;25478;42.626;23.320;2022-12-07T02:08:14;92989.31;;;3.46;100.00
39789;BME280;25478;42.626;23.320;2022-12-07T02:10:40;92989.31;;;3.46;100.00
39789;BME280;25478;42.626;23.320;2022-12-07T02:13:17;92989.31;;;3.46;100.00
39789;BME280;25478;42.626;23.320;2022-12-07T02:18:38;92996.91;;;3.39;100.00
39789;BME280;25478;42.626;23.320;2022-12-07T02:21:14;93013.63;;;3.38;100.00
39789;BME280;25478;42.626;23.320;2022-12-07T02:26:48;93013.97;;;3.36;100.00
39789;BME280;25478;42.626;23.320;2022-12-07T02:29:34;93003.97;;;3.38;100.00
39789;BME280;25478;42.626;23.320;2022-12-07T02:35:24;92987.47;;;3.47;100.00
39789;BME280;25478;42.626;23.320;2022-12-07T02:37:29;92985.28;;;3.49;100.00
39789;BME280;25478;42.626;23.320;2022-12-07T02:40:04;92977.19;;;3.38;100.00
39789;BME280;25478;42.626;23.320;2022-12-07T02:42:39;92981.72;;;3.41;100.00
39789;BME280;25478;42.626;23.320;2022-12-07T02:45:07;92961.28;;;3.27;100.00
39789;BME280;25478;42.626;23.320;2022-12-07T02:47:34;92984.13;;;3.34;100.00
39789;BME280;25478;42.626;23.320;2022-12-07T02:50:05;93000.00;;;3.29;100.00
39789;BME280;25478;42.626;23.320;2022-12-07T02:52:31;92982.00;;;3.24;100.00
39789;BME280;25478;42.626;23.320;2022-12-07T02:54:57;92980.81;;;3.21;100.00
39789;BME280;25478;42.626;23.320;2022-12-07T02:57:48;92962.44;;;3.02;100.00
39789;BME280;25478;42.626;23.320;2022-12-07T03:00:19;92981.78;;;3.17;100.00
39789;BME280;25478;42.626;23.320;2022-12-07T03:03:00;92970.97;;;3.15;100.00
39789;BME280;25478;42.626;23.320;2022-12-07T03:16:31;92961.03;;;3.04;100.00
39789;BME280;25478;42.626;23.320;2022-12-07T03:19:06;92942.09;;;2.92;100.00
39789;BME280;25478;42.626;23.320;2022-12-07T03:21:44;92959.41;;;3.00;100.00
39789;BME280;25478;42.626;23.320;2022-12-07T03:24:18;92964.59;;;3.00;100.00
39789;BME280;25478;42.626;23.320;2022-12-07T03:26:49;92964.19;;;2.98;100.00
39789;BME280;25478;42.626;23.320;2022-12-07T03:29:26;92970.81;;;2.95;100.00
39789;BME280;25478;42.626;23.320;2022-12-07T03:32:14;92973.28;;;2.92;100.00
39789;BME280;25478;42.626;23.320;2022-12-07T03:35:02;92960.28;;;2.92;100.00
39789;BME280;25478;42.626;23.320;2022-12-07T03:40:32;92966.56;;;2.91;100.00
39789;BME280;25478;42.626;23.320;2022-12-07T03:43:00;92972.53;;;2.91;100.00
39789;BME280;25478;42.626;23.320;2022-12-07T03:45:38;92963.22;;;2.90;100.00
39789;BME280;25478;42.626;23.320;2022-12-07T03:48:20;92968.41;;;2.90;100.00
39789;BME280;25478;42.626;23.320;2022-12-07T03:53:30;92962.88;;;2.92;100.00
39789;BME280;25478;42.626;23.320;2022-12-07T03:56:00;92967.44;;;2.95;100.00
39789;BME280;25478;42.626;23.320;2022-12-07T03:58:27;92952.25;;;2.97;100.00
39789;BME280;25478;42.626;23.320;2022-12-07T04:00:53;92951.19;;;2.98;100.00
39789;BME280;25478;42.626;23.320;2022-12-07T04:03:18;92946.72;;;2.98;100.00
39789;BME280;25478;42.626;23.320;2022-12-07T04:05:44;92948.25;;;2.99;100.00
39789;BME280;25478;42.626;23.320;2022-12-07T04:08:10;92956.72;;;2.96;100.00
39789;BME280;25478;42.626;23.320;2022-12-07T04:10:36;92957.34;;;2.93;100.00
39789;BME280;25478;42.626;23.320;2022-12-07T04:13:01;92963.97;;;2.91;100.00
39789;BME280;25478;42.626;23.320;2022-12-07T04:15:27;92942.44;;;2.78;100.00
39789;BME280;25478;42.626;23.320;2022-12-07T04:17:53;92936.81;;;2.76;100.00
39789;BME280;25478;42.626;23.320;2022-12-07T04:20:20;92957.25;;;2.90;100.00
39789;BME280;25478;42.626;23.320;2022-12-07T04:22:46;92955.41;;;2.90;100.00
39789;BME280;25478;42.626;23.320;2022-12-07T04:25:12;92955.41;;;2.90;100.00
39789;BME280;25478;42.626;23.320;2022-12-07T04:27:37;92940.69;;;2.82;100.00
39789;BME280;25478;42.626;23.320;2022-12-07T04:30:03;92951.72;;;2.91;100.00
39789;BME280;25478;42.626;23.320;2022-12-07T04:32:29;92962.47;;;2.90;100.00
39789;BME280;25478;42.626;23.320;2022-12-07T04:34:54;92942.75;;;2.76;100.00
39789;BME280;25478;42.626;23.320;2022-12-07T04:37:20;92964.63;;;2.88;100.00
39789;BME280;25478;42.626;23.320;2022-12-07T04:39:45;92955.44;;;2.78;100.00
39789;BME280;25478;42.626;23.320;2022-12-07T04:42:11;92971.56;;;2.83;100.00
39789;BME280;25478;42.626;23.320;2022-12-07T04:44:38;92897.31;;;2.34;100.00
39789;BME280;25478;42.626;23.320;2022-12-07T04:47:03;92967.34;;;2.79;100.00
39789;BME280;25478;42.626;23.320;2022-12-07T04:49:29;92971.03;;;2.78;100.00
39789;BME280;25478;42.626;23.320;2022-12-07T04:51:54;92950.91;;;2.63;100.00
39789;BME280;25478;42.626;23.320;2022-12-07T04:54:20;92970.50;;;2.72;100.00
39789;BME280;25478;42.626;23.320;2022-12-07T04:56:46;92971.91;;;2.70;100.00
39789;BME280;25478;42.626;23.320;2022-12-07T04:59:13;92972.56;;;2.67;100.00
39789;BME280;25478;42.626;23.320;2022-12-07T05:01:40;92944.84;;;2.46;100.00
39789;BME280;25478;42.626;23.320;2022-12-07T05:04:05;92941.94;;;2.48;100.00
39789;BME280;25478;42.626;23.320;2022-12-07T05:06:31;92968.97;;;2.59;100.00
39789;BME280;25478;42.626;23.320;2022-12-07T05:08:57;92964.44;;;2.56;100.00
39789;BME280;25478;42.626;23.320;2022-12-07T05:11:22;92958.06;;;2.53;100.00
39789;BME280;25478;42.626;23.320;2022-12-07T05:14:06;92966.50;;;2.50;100.00
39789;BME280;25478;42.626;23.320;2022-12-07T05:16:32;92970.50;;;2.48;100.00
39789;BME280;25478;42.626;23.320;2022-12-07T05:18:58;92983.81;;;2.46;100.00
39789;BME280;25478;42.626;23.320;2022-12-07T05:21:24;92982.00;;;2.47;100.00
39789;BME280;25478;42.626;23.320;2022-12-07T05:23:49;92977.22;;;2.49;100.00
39789;BME280;25478;42.626;23.320;2022-12-07T05:26:15;92975.50;;;2.53;100.00
39789;BME280;25478;42.626;23.320;2022-12-07T05:28:41;92973.00;;;2.57;100.00
39789;BME280;25478;42.626;23.320;2022-12-07T05:31:06;92979.50;;;2.63;100.00
39789;BME280;25478;42.626;23.320;2022-12-07T05:33:32;92963.66;;;2.68;100.00
39789;BME280;25478;42.626;23.320;2022-12-07T05:35:57;92965.31;;;2.72;100.00
39789;BME280;25478;42.626;23.320;2022-12-07T05:38:23;92975.47;;;2.77;100.00
39789;BME280;25478;42.626;23.320;2022-12-07T05:40:50;92952.50;;;2.79;100.00
39789;BME280;25478;42.626;23.320;2022-12-07T05:43:15;92951.31;;;2.77;100.00
39789;BME280;25478;42.626;23.320;2022-12-07T05:45:41;92952.84;;;2.78;100.00
39789;BME280;25478;42.626;23.320;2022-12-07T05:48:06;92944.72;;;2.79;100.00
39789;BME280;25478;42.626;23.320;2022-12-07T05:50:32;92943.28;;;2.82;100.00
39789;BME280;25478;42.626;23.320;2022-12-07T05:53:00;92952.59;;;2.83;100.00
39789;BME280;25478;42.626;23.320;2022-12-07T05:55:25;92950.75;;;2.83;100.00
39789;BME280;25478;42.626;23.320;2022-12-07T05:57:51;92959.44;;;2.88;100.00
39789;BME280;25478;42.626;23.320;2022-12-07T06:00:35;92938.09;;;2.82;100.00
39789;BME280;25478;42.626;23.320;2022-12-07T06:03:00;92951.19;;;2.86;100.00
39789;BME280;25478;42.626;23.320;2022-12-07T06:05:26;92952.94;;;2.81;100.00
39789;BME280;25478;42.626;23.320;2022-12-07T06:07:51;92947.31;;;2.79;100.00
39789;BME280;25478;42.626;23.320;2022-12-07T06:10:17;92954.03;;;2.80;100.00
39789;BME280;25478;42.626;23.320;2022-12-07T06:12:42;92954.25;;;2.75;100.00
39789;BME280;25478;42.626;23.320;2022-12-07T06:15:11;92959.78;;;2.86;100.00
39789;BME280;25478;42.626;23.320;2022-12-07T06:17:38;92967.66;;;2.90;100.00
39789;BME280;25478;42.626;23.320;2022-12-07T06:20:04;92964.72;;;2.91;100.00
39789;BME280;25478;42.626;23.320;2022-12-07T06:22:30;92965.25;;;2.97;100.00
39789;BME280;25478;42.626;23.320;2022-12-07T06:24:55;92969.47;;;3.01;100.00
39789;BME280;25478;42.626;23.320;2022-12-07T06:27:21;92973.38;;;3.07;100.00
39789;BME280;25478;42.626;23.320;2022-12-07T06:29:47;92970.84;;;3.11;100.00
39789;BME280;25478;42.626;23.320;2022-12-07T06:32:12;92966.19;;;3.17;100.00
39789;BME280;25478;42.626;23.320;2022-12-07T06:34:38;92955.03;;;3.16;100.00
39789;BME280;25478;42.626;23.320;2022-12-07T06:37:04;92949.16;;;3.19;100.00
39789;BME280;25478;42.626;23.320;2022-12-07T06:39:30;92958.97;;;3.38;100.00
39789;BME280;25478;42.626;23.320;2022-12-07T06:41:56;92968.81;;;3.45;100.00
39789;BME280;25478;42.626;23.320;2022-12-07T06:44:22;92965.97;;;3.50;100.00
39789;BME280;25478;42.626;23.320;2022-12-07T06:46:48;92970.84;;;3.51;100.00
39789;BME280;25478;42.626;23.320;2022-12-07T06:49:14;92974.97;;;3.52;100.00
39789;BME280;25478;42.626;23.320;2022-12-07T06:51:40;92970.09;;;3.51;100.00
39789;BME280;25478;42.626;23.320;2022-12-07T06:54:11;92974.19;;;3.52;100.00
39789;BME280;25478;42.626;23.320;2022-12-07T06:56:37;92975.50;;;3.58;100.00
39789;BME280;25478;42.626;23.320;2022-12-07T06:59:04;92974.06;;;3.60;100.00
39789;BME280;25478;42.626;23.320;2022-12-07T07:01:30;92976.78;;;3.64;100.00
39789;BME280;25478;42.626;23.320;2022-12-07T07:03:56;92981.97;;;3.64;100.00
39789;BME280;25478;42.626;23.320;2022-12-07T07:06:21;92985.66;;;3.63;100.00
39789;BME280;25478;42.626;23.320;2022-12-07T07:08:47;92977.88;;;3.63;100.00
39789;BME280;25478;42.626;23.320;2022-12-07T07:11:12;92975.56;;;3.61;100.00
39789;BME280;25478;42.626;23.320;2022-12-07T07:13:38;92972.31;;;3.64;100.00
39789;BME280;25478;42.626;23.320;2022-12-07T07:16:04;92962.09;;;3.72;100.00
39789;BME280;25478;42.626;23.320;2022-12-07T07:18:30;92966.72;;;3.78;100.00
39789;BME280;25478;42.626;23.320;2022-12-07T07:20:55;92967.16;;;3.80;100.00
39789;BME280;25478;42.626;23.320;2022-12-07T07:23:21;92969.09;;;3.83;100.00
39789;BME280;25478;42.626;23.320;2022-12-07T07:25:47;92979.50;;;3.83;100.00
39789;BME280;25478;42.626;23.320;2022-12-07T07:28:13;92980.06;;;3.77;100.00
39789;BME280;25478;42.626;23.320;2022-12-07T07:30:39;92989.22;;;3.71;100.00
39789;BME280;25478;42.626;23.320;2022-12-07T07:33:04;92997.03;;;3.71;100.00
39789;BME280;25478;42.626;23.320;2022-12-07T07:35:32;92993.22;;;3.68;100.00
39789;BME280;25478;42.626;23.320;2022-12-07T07:37:58;92993.69;;;3.70;100.00
39789;BME280;25478;42.626;23.320;2022-12-07T07:40:24;93000.69;;;3.70;100.00
39789;BME280;25478;42.626;23.320;2022-12-07T07:42:51;92990.41;;;3.73;100.00
39789;BME280;25478;42.626;23.320;2022-12-07T07:45:17;92990.25;;;3.82;100.00
39789;BME280;25478;42.626;23.320;2022-12-07T07:47:43;92986.31;;;3.88;100.00
39789;BME280;25478;42.626;23.320;2022-12-07T07:50:09;92975.75;;;3.97;100.00
39789;BME280;25478;42.626;23.320;2022-12-07T07:52:34;92988.28;;;4.07;100.00
39789;BME280;25478;42.626;23.320;2022-12-07T07:55:00;92987.38;;;4.15;100.00
39789;BME280;25478;42.626;23.320;2022-12-07T07:57:25;92986.34;;;4.19;100.00
39789;BME280;25478;42.626;23.320;2022-12-07T07:59:52;92988.94;;;4.19;100.00
39789;BME280;25478;42.626;23.320;2022-12-07T08:02:19;92987.44;;;4.18;100.00
39789;BME280;25478;42.626;23.320;2022-12-07T08:04:45;92988.13;;;4.15;100.00
39789;BME280;25478;42.626;23.320;2022-12-07T08:07:12;92980.66;;;4.14;100.00
39789;BME280;25478;42.626;23.320;2022-12-07T08:09:38;92986.84;;;4.09;100.00
39789;BME280;25478;42.626;23.320;2022-12-07T08:12:04;92985.00;;;4.10;100.00
39789;BME280;25478;42.626;23.320;2022-12-07T08:14:29;92986.19;;;4.12;100.00
39789;BME280;25478;42.626;23.320;2022-12-07T08:16:55;92985.50;;;4.15;100.00
39789;BME280;25478;42.626;23.320;2022-12-07T08:19:21;92990.72;;;4.15;100.00
39789;BME280;25478;42.626;23.320;2022-12-07T08:21:46;92981.41;;;4.14;100.00
39789;BME280;25478;42.626;23.320;2022-12-07T08:24:13;92986.59;;;4.14;100.00
39789;BME280;25478;42.626;23.320;2022-12-07T08:26:38;92988.19;;;4.19;100.00
39789;BME280;25478;42.626;23.320;2022-12-07T08:29:04;92982.41;;;4.26;100.00
39789;BME280;25478;42.626;23.320;2022-12-07T08:31:29;92992.66;;;4.34;100.00
39789;BME280;25478;42.626;23.320;2022-12-07T08:33:55;92956.28;;;4.22;100.00
39789;BME280;25478;42.626;23.320;2022-12-07T08:36:20;92952.00;;;4.30;100.00
39789;BME280;25478;42.626;23.320;2022-12-07T08:38:48;92981.50;;;4.49;100.00
39789;BME280;25478;42.626;23.320;2022-12-07T08:41:13;92981.81;;;4.48;100.00
39789;BME280;25478;42.626;23.320;2022-12-07T08:43:39;92978.13;;;4.49;100.00
39789;BME280;25478;42.626;23.320;2022-12-07T08:46:13;92981.16;;;4.51;100.00
39789;BME280;25478;42.626;23.320;2022-12-07T08:48:50;92979.63;;;4.50;100.00
39789;BME280;25478;42.626;23.320;2022-12-07T08:51:18;92976.34;;;4.53;100.00
39789;BME280;25478;42.626;23.320;2022-12-07T08:53:44;92969.72;;;4.56;100.00
39789;BME280;25478;42.626;23.320;2022-12-07T08:56:10;92980.97;;;4.60;100.00
39789;BME280;25478;42.626;23.320;2022-12-07T08:58:36;92967.00;;;4.68;100.00
39789;BME280;25478;42.626;23.320;2022-12-07T09:01:03;92962.69;;;4.75;100.00
39789;BME280;25478;42.626;23.320;2022-12-07T09:03:30;92964.63;;;4.78;100.00
39789;BME280;25478;42.626;23.320;2022-12-07T09:05:55;92963.28;;;4.85;100.00
39789;BME280;25478;42.626;23.320;2022-12-07T09:08:23;92968.31;;;4.93;100.00
39789;BME280;25478;42.626;23.320;2022-12-07T09:10:52;92959.13;;;4.99;100.00
39789;BME280;25478;42.626;23.320;2022-12-07T09:13:17;92951.69;;;5.01;100.00
39789;BME280;25478;42.626;23.320;2022-12-07T09:15:43;92956.66;;;5.06;100.00
39789;BME280;25478;42.626;23.320;2022-12-07T09:18:08;92944.44;;;5.11;100.00
39789;BME280;25478;42.626;23.320;2022-12-07T09:20:34;92941.06;;;5.10;100.00
39789;BME280;25478;42.626;23.320;2022-12-07T09:22:59;92945.63;;;5.13;100.00
39789;BME280;25478;42.626;23.320;2022-12-07T09:25:25;92940.13;;;5.18;100.00
39789;BME280;25478;42.626;23.320;2022-12-07T09:27:57;92924.06;;;5.16;100.00
39789;BME280;25478;42.626;23.320;2022-12-07T09:30:24;92936.44;;;5.39;100.00
39789;BME280;25478;42.626;23.320;2022-12-07T09:32:49;92939.91;;;5.46;100.00
39789;BME280;25478;42.626;23.320;2022-12-07T09:35:15;92917.66;;;5.33;100.00
39789;BME280;25478;42.626;23.320;2022-12-07T09:37:40;92935.66;;;5.57;100.00
39789;BME280;25478;42.626;23.320;2022-12-07T09:40:06;92935.78;;;5.64;100.00
39789;BME280;25478;42.626;23.320;2022-12-07T09:42:39;92921.75;;;5.73;100.00
39789;BME280;25478;42.626;23.320;2022-12-07T09:45:15;92917.00;;;5.78;100.00
39789;BME280;25478;42.626;23.320;2022-12-07T09:47:41;92913.72;;;5.81;100.00
39789;BME280;25478;42.626;23.320;2022-12-07T09:50:20;92923.31;;;5.97;100.00
39789;BME280;25478;42.626;23.320;2022-12-07T09:52:47;92922.66;;;6.03;100.00
39789;BME280;25478;42.626;23.320;2022-12-07T09:55:16;92918.19;;;6.04;100.00
39789;BME280;25478;42.626;23.320;2022-12-07T09:57:45;92914.19;;;6.10;100.00
39789;BME280;25478;42.626;23.320;2022-12-07T10:00:15;92905.31;;;6.14;100.00
39789;BME280;25478;42.626;23.320;2022-12-07T10:02:47;92912.81;;;6.16;100.00
39789;BME280;25478;42.626;23.320;2022-12-07T10:05:44;92908.78;;;6.22;100.00
39789;BME280;25478;42.626;23.320;2022-12-07T10:08:11;92904.09;;;6.31;100.00
39789;BME280;25478;42.626;23.320;2022-12-07T10:10:36;92884.88;;;6.20;100.00
39789;BME280;25478;42.626;23.320;2022-12-07T10:13:06;92907.88;;;6.34;100.00
39789;BME280;25478;42.626;23.320;2022-12-07T10:20:47;92906.13;;;6.41;99.63
39789;BME280;25478;42.626;23.320;2022-12-07T10:23:17;92905.78;;;6.46;99.48
39789;BME280;25478;42.626;23.320;2022-12-07T10:25:44;92895.50;;;6.57;100.00
39789;BME280;25478;42.626;23.320;2022-12-07T10:28:15;92886.34;;;6.70;99.63
39789;BME280;25478;42.626;23.320;2022-12-07T10:31:03;92890.63;;;6.82;98.41
39789;BME280;25478;42.626;23.320;2022-12-07T10:33:54;92879.16;;;6.94;98.54
39789;BME280;25478;42.626;23.320;2022-12-07T10:38:58;92857.03;;;7.18;97.76
39789;BME280;25478;42.626;23.320;2022-12-07T10:41:25;92866.47;;;7.26;97.58
39789;BME280;25478;42.626;23.320;2022-12-07T10:43:56;92863.59;;;7.38;97.40
39789;BME280;25478;42.626;23.320;2022-12-07T10:46:45;92859.53;;;7.41;96.88
39789;BME280;25478;42.626;23.320;2022-12-07T10:49:25;92863.28;;;7.43;96.99
39789;BME280;25478;42.626;23.320;2022-12-07T11:00:31;92832.25;;;7.45;96.02
39789;BME280;25478;42.626;23.320;2022-12-07T11:10:57;92833.06;;;7.53;94.98
39789;BME280;25478;42.626;23.320;2022-12-07T11:16:50;92838.41;;;7.63;93.64
39789;BME280;25478;42.626;23.320;2022-12-07T11:27:30;92818.41;;;7.85;91.59
39789;BME280;25478;42.626;23.320;2022-12-07T11:32:45;92810.72;;;8.10;90.19
39789;BME280;25478;42.626;23.320;2022-12-07T11:38:43;92796.78;;;8.51;87.09
39789;BME280;25478;42.626;23.320;2022-12-07T11:41:09;92798.75;;;8.68;86.19
39789;BME280;25478;42.626;23.320;2022-12-07T11:46:12;92793.59;;;8.93;84.16
39789;BME280;25478;42.626;23.320;2022-12-07T11:48:47;92786.13;;;9.06;83.16
39789;BME280;25478;42.626;23.320;2022-12-07T11:51:18;92788.44;;;9.18;82.56
39789;BME280;25478;42.626;23.320;2022-12-07T11:53:55;92793.34;;;9.34;81.43
39789;BME280;25478;42.626;23.320;2022-12-07T11:56:25;92785.88;;;9.43;80.43
39789;BME280;25478;42.626;23.320;2022-12-07T11:59:11;92780.97;;;9.45;79.83
39789;BME280;25478;42.626;23.320;2022-12-07T12:06:40;92771.97;;;9.42;78.88
39789;BME280;25478;42.626;23.320;2022-12-07T12:09:31;92776.47;;;9.49;79.06
39789;BME280;25478;42.626;23.320;2022-12-07T12:14:33;92780.25;;;9.58;78.18
39789;BME280;25478;42.626;23.320;2022-12-07T12:25:30;92753.97;;;9.51;77.01
39789;BME280;25478;42.626;23.320;2022-12-07T12:27:58;92749.84;;;9.50;77.06
39789;BME280;25478;42.626;23.320;2022-12-07T12:30:31;92737.06;;;9.49;76.80
39789;BME280;25478;42.626;23.320;2022-12-07T12:33:14;92740.81;;;9.48;76.97
39789;BME280;25478;42.626;23.320;2022-12-07T12:35:42;92741.19;;;9.50;76.76
39789;BME280;25478;42.626;23.320;2022-12-07T12:40:57;92747.56;;;9.38;76.97
39789;BME280;25478;42.626;23.320;2022-12-07T12:43:59;92743.41;;;9.30;76.94
39789;BME280;25478;42.626;23.320;2022-12-07T12:51:53;92721.28;;;9.24;76.52
39789;BME280;25478;42.626;23.320;2022-12-07T12:54:25;92718.66;;;9.20;76.11
39789;BME280;25478;42.626;23.320;2022-12-07T12:56:59;92744.56;;;9.36;76.51
39789;BME280;25478;42.626;23.320;2022-12-07T12:59:36;92744.56;;;9.36;76.53
39789;BME280;25478;42.626;23.320;2022-12-07T13:04:58;92741.19;;;9.36;76.38
39789;BME280;25478;42.626;23.320;2022-12-07T13:20:58;92742.59;;;8.97;78.12
39789;BME280;25478;42.626;23.320;2022-12-07T13:28:52;92746.66;;;8.81;77.95
39789;BME280;25478;42.626;23.320;2022-12-07T13:31:38;92741.00;;;8.71;78.40
39789;BME280;25478;42.626;23.320;2022-12-07T13:34:27;92735.34;;;8.62;78.81
39789;BME280;25478;42.626;23.320;2022-12-07T13:36:51;92743.94;;;8.56;79.58
39789;BME280;25478;42.626;23.320;2022-12-07T13:39:22;92744.31;;;8.54;80.24
39789;BME280;25478;42.626;23.320;2022-12-07T13:41:51;92733.81;;;8.51;80.36
39789;BME280;25478;42.626;23.320;2022-12-07T13:44:18;92739.06;;;8.51;80.56
39789;BME280;25478;42.626;23.320;2022-12-07T13:47:14;92721.75;;;8.39;81.05
39789;BME280;25478;42.626;23.320;2022-12-07T13:49:53;92725.53;;;8.49;81.10
39789;BME280;25478;42.626;23.320;2022-12-07T13:52:29;92727.03;;;8.46;80.97
39789;BME280;25478;42.626;23.320;2022-12-07T13:57:33;92727.03;;;8.42;81.05
39789;BME280;25478;42.626;23.320;2022-12-07T14:00:01;92721.75;;;8.39;81.58
39789;BME280;25478;42.626;23.320;2022-12-07T14:02:32;92720.25;;;8.38;80.88
39789;BME280;25478;42.626;23.320;2022-12-07T14:05:14;92723.63;;;8.38;80.99
39789;BME280;25478;42.626;23.320;2022-12-07T14:07:57;92721.00;;;8.35;81.49
39789;BME280;25478;42.626;23.320;2022-12-07T14:10:28;92725.44;;;8.31;81.64
39789;BME280;25478;42.626;23.320;2022-12-07T14:12:55;92727.31;;;8.27;82.11
39789;BME280;25478;42.626;23.320;2022-12-07T14:15:24;92721.66;;;8.21;83.55
39789;BME280;25478;42.626;23.320;2022-12-07T14:17:54;92733.97;;;8.13;83.57
39789;BME280;25478;42.626;23.320;2022-12-07T14:22:58;92742.47;;;7.96;84.93
39789;BME280;25478;42.626;23.320;2022-12-07T14:25:25;92742.06;;;7.90;85.50
39789;BME280;25478;42.626;23.320;2022-12-07T14:30:22;92732.19;;;7.73;85.98
39789;BME280;25478;42.626;23.320;2022-12-07T14:32:52;92733.28;;;7.65;85.70
39789;BME280;25478;42.626;23.320;2022-12-07T14:35:18;92724.94;;;7.56;86.09
39789;BME280;25478;42.626;23.320;2022-12-07T14:37:47;92725.31;;;7.51;86.26
39789;BME280;25478;42.626;23.320;2022-12-07T14:40:15;92733.84;;;7.44;85.93
39789;BME280;25478;42.626;23.320;2022-12-07T14:42:41;92733.03;;;7.37;86.69
39789;BME280;25478;42.626;23.320;2022-12-07T14:45:19;92727.72;;;7.29;86.67
39789;BME280;25478;42.626;23.320;2022-12-07T14:47:46;92726.88;;;7.15;86.43
39789;BME280;25478;42.626;23.320;2022-12-07T14:50:16;92738.09;;;7.15;86.58
39789;BME280;25478;42.626;23.320;2022-12-07T14:52:55;92729.75;;;7.06;86.63
39789;BME280;25478;42.626;23.320;2022-12-07T14:57:49;92740.84;;;6.92;87.57
39789;BME280;25478;42.626;23.320;2022-12-07T15:00:16;92747.50;;;6.86;87.67
39789;BME280;25478;42.626;23.320;2022-12-07T15:02:43;92751.50;;;6.76;88.21
39789;BME280;25478;42.626;23.320;2022-12-07T15:05:09;92751.78;;;6.68;88.39
39789;BME280;25478;42.626;23.320;2022-12-07T15:07:35;92729.84;;;6.46;88.62
39789;BME280;25478;42.626;23.320;2022-12-07T15:10:00;92758.66;;;6.49;89.05
39789;BME280;25478;42.626;23.320;2022-12-07T15:12:26;92751.09;;;6.41;89.43
39789;BME280;25478;42.626;23.320;2022-12-07T15:14:52;92761.81;;;6.32;89.67